createdAt,value
2016-10-10T00:00:26.196Z,0
2016-10-10T00:01:26.867Z,0
2016-10-10T00:02:27.546Z,0
2016-10-10T00:03:28.211Z,0
2016-10-10T00:04:28.884Z,0
2016-10-10T00:05:29.546Z,0
2016-10-10T00:06:30.221Z,0
2016-10-10T00:07:30.881Z,0
2016-10-10T00:08:31.548Z,0
2016-10-10T00:09:32.209Z,0
2016-10-10T00:10:32.871Z,0
2016-10-10T00:11:33.546Z,0
2016-10-10T00:12:34.204Z,0
2016-10-10T00:13:34.853Z,0
2016-10-10T00:14:35.519Z,0
2016-10-10T00:15:36.189Z,0
2016-10-10T00:16:36.844Z,0
2016-10-10T00:17:37.534Z,0
2016-10-10T00:18:38.200Z,0
2016-10-10T00:19:38.855Z,0
2016-10-10T00:20:39.511Z,0
2016-10-10T00:21:40.184Z,0
2016-10-10T00:22:40.845Z,0
2016-10-10T00:23:41.522Z,0
2016-10-10T00:24:42.207Z,0
2016-10-10T00:25:42.885Z,0
2016-10-10T00:26:43.548Z,0
2016-10-10T00:27:44.215Z,0
2016-10-10T00:28:44.893Z,0
2016-10-10T00:29:45.567Z,0
2016-10-10T00:30:46.231Z,0
2016-10-10T00:31:46.896Z,0
2016-10-10T00:32:47.559Z,0
2016-10-10T00:33:48.222Z,0
2016-10-10T00:34:48.880Z,0
2016-10-10T00:35:49.543Z,0
2016-10-10T00:36:50.211Z,0
2016-10-10T00:37:50.858Z,0
2016-10-10T00:38:51.515Z,0
2016-10-10T00:39:52.173Z,0
2016-10-10T00:40:52.848Z,0
2016-10-10T00:41:53.521Z,0
2016-10-10T00:42:54.178Z,0
2016-10-10T00:43:54.869Z,0
2016-10-10T00:44:55.544Z,0
2016-10-10T00:45:56.208Z,0
2016-10-10T00:46:56.871Z,0
2016-10-10T00:47:57.539Z,0
2016-10-10T00:48:58.231Z,0
2016-10-10T00:49:58.910Z,0
2016-10-10T00:50:59.582Z,0
2016-10-10T00:52:00.243Z,0
2016-10-10T00:53:00.898Z,0
2016-10-10T00:54:01.570Z,0
2016-10-10T00:55:02.234Z,0
2016-10-10T00:56:02.893Z,0
2016-10-10T00:57:03.553Z,0
2016-10-10T00:58:04.216Z,0
2016-10-10T00:59:04.873Z,0
2016-10-10T01:00:05.544Z,0
2016-10-10T01:01:06.220Z,0
2016-10-10T01:02:06.891Z,0
2016-10-10T01:03:07.548Z,0
2016-10-10T01:04:08.208Z,0
2016-10-10T01:05:08.883Z,0
2016-10-10T01:06:09.578Z,0
2016-10-10T01:07:10.231Z,0
2016-10-10T01:08:10.890Z,0
2016-10-10T01:09:11.548Z,0
2016-10-10T01:10:12.199Z,0
2016-10-10T01:11:12.904Z,0
2016-10-10T01:12:13.566Z,0
2016-10-10T01:13:14.239Z,0
2016-10-10T01:14:14.892Z,0
2016-10-10T01:15:15.552Z,0
2016-10-10T01:16:16.223Z,0
2016-10-10T01:17:16.902Z,0
2016-10-10T01:18:17.563Z,0
2016-10-10T01:19:18.220Z,0
2016-10-10T01:20:18.881Z,0
2016-10-10T01:21:19.571Z,0
2016-10-10T01:22:20.234Z,0
2016-10-10T01:23:20.910Z,0
2016-10-10T01:24:21.583Z,0
2016-10-10T01:25:22.258Z,0
2016-10-10T01:26:22.923Z,0
2016-10-10T01:27:23.576Z,0
2016-10-10T01:28:24.276Z,0
2016-10-10T01:29:24.945Z,0
2016-10-10T01:30:25.616Z,0
2016-10-10T01:31:26.289Z,0
2016-10-10T01:32:26.964Z,0
2016-10-10T01:33:27.634Z,0
2016-10-10T01:34:28.298Z,0
2016-10-10T01:35:28.976Z,0
2016-10-10T01:36:29.655Z,0
2016-10-10T01:37:30.321Z,0
2016-10-10T01:38:30.997Z,0
2016-10-10T01:39:31.665Z,0
2016-10-10T01:40:32.318Z,0
2016-10-10T01:41:33.007Z,0
2016-10-10T01:42:33.671Z,0
2016-10-10T01:43:34.339Z,0
2016-10-10T01:44:34.998Z,0
2016-10-10T01:45:35.647Z,0
2016-10-10T01:46:36.317Z,0
2016-10-10T01:47:36.967Z,0
2016-10-10T01:48:37.633Z,0
2016-10-10T01:49:38.284Z,0
2016-10-10T01:50:38.975Z,0
2016-10-10T01:51:39.639Z,0
2016-10-10T01:52:40.295Z,0
2016-10-10T01:53:41.022Z,0
2016-10-10T01:54:41.663Z,0
2016-10-10T01:55:42.317Z,0
2016-10-10T01:56:42.998Z,0
2016-10-10T01:57:43.659Z,0
2016-10-10T01:58:44.368Z,0
2016-10-10T01:59:45.017Z,0
2016-10-10T02:00:45.683Z,0
2016-10-10T02:01:46.351Z,0
2016-10-10T02:02:47.003Z,0
2016-10-10T02:03:47.698Z,0
2016-10-10T02:04:48.363Z,0
2016-10-10T02:05:49.029Z,0
2016-10-10T02:06:49.716Z,0
2016-10-10T02:07:50.386Z,0
2016-10-10T02:08:51.055Z,0
2016-10-10T02:09:51.731Z,0
2016-10-10T02:10:52.400Z,0
2016-10-10T02:11:53.073Z,0
2016-10-10T02:12:53.741Z,0
2016-10-10T02:13:54.419Z,0
2016-10-10T02:14:55.100Z,0
2016-10-10T02:15:55.772Z,0
2016-10-10T02:16:56.433Z,0
2016-10-10T02:17:57.094Z,0
2016-10-10T02:18:57.753Z,0
2016-10-10T02:19:58.407Z,0
2016-10-10T02:20:59.072Z,0
2016-10-10T02:21:59.747Z,0
2016-10-10T02:23:00.418Z,0
2016-10-10T02:24:01.084Z,0
2016-10-10T02:25:01.767Z,0
2016-10-10T02:26:02.426Z,0
2016-10-10T02:27:03.126Z,0
2016-10-10T02:28:03.838Z,0
2016-10-10T02:29:04.501Z,0
2016-10-10T02:30:05.177Z,0
2016-10-10T02:31:05.845Z,0
2016-10-10T02:32:06.518Z,0
2016-10-10T02:33:07.189Z,0
2016-10-10T02:34:07.863Z,0
2016-10-10T02:35:08.540Z,0
2016-10-10T02:36:09.210Z,0
2016-10-10T02:37:09.877Z,0
2016-10-10T02:38:10.549Z,0
2016-10-10T02:39:11.231Z,0
2016-10-10T02:40:11.893Z,0
2016-10-10T02:41:12.587Z,0
2016-10-10T02:42:13.255Z,0
2016-10-10T02:43:13.917Z,0
2016-10-10T02:44:14.588Z,0
2016-10-10T02:45:15.245Z,0
2016-10-10T02:46:15.940Z,0
2016-10-10T02:47:16.604Z,0
2016-10-10T02:48:17.259Z,0
2016-10-10T02:49:17.908Z,0
2016-10-10T02:50:18.558Z,0
2016-10-10T02:51:19.203Z,0
2016-10-10T02:52:19.865Z,0
2016-10-10T02:53:20.534Z,0
2016-10-10T02:54:21.191Z,0
2016-10-10T02:55:21.877Z,0
2016-10-10T02:56:22.536Z,0
2016-10-10T02:57:23.195Z,0
2016-10-10T02:58:23.842Z,0
2016-10-10T02:59:24.522Z,0
2016-10-10T03:00:25.190Z,0
2016-10-10T03:01:25.861Z,0
2016-10-10T03:02:26.532Z,0
2016-10-10T03:03:27.211Z,0
2016-10-10T03:04:27.874Z,0
2016-10-10T03:05:28.549Z,0
2016-10-10T03:06:29.222Z,0
2016-10-10T03:07:29.876Z,0
2016-10-10T03:08:30.534Z,0
2016-10-10T03:09:31.198Z,0
2016-10-10T03:10:31.858Z,0
2016-10-10T03:11:32.531Z,0
2016-10-10T03:12:33.208Z,0
2016-10-10T03:13:33.935Z,0
2016-10-10T03:14:34.597Z,0
2016-10-10T03:15:35.276Z,0
2016-10-10T03:16:35.944Z,0
2016-10-10T03:17:36.596Z,0
2016-10-10T03:18:37.257Z,0
2016-10-10T03:19:37.918Z,0
2016-10-10T03:20:38.602Z,0
2016-10-10T03:21:39.267Z,0
2016-10-10T03:22:39.937Z,0
2016-10-10T03:23:40.600Z,0
2016-10-10T03:24:41.271Z,0
2016-10-10T03:25:41.949Z,0
2016-10-10T03:26:42.625Z,0
2016-10-10T03:27:43.301Z,0
2016-10-10T03:28:43.975Z,0
2016-10-10T03:29:44.633Z,0
2016-10-10T03:30:45.313Z,0
2016-10-10T03:31:45.990Z,0
2016-10-10T03:32:46.660Z,0
2016-10-10T03:33:47.322Z,0
2016-10-10T03:34:47.996Z,0
2016-10-10T03:35:48.681Z,0
2016-10-10T03:36:49.349Z,0
2016-10-10T03:37:50.020Z,0
2016-10-10T03:38:50.693Z,0
2016-10-10T03:39:51.363Z,0
2016-10-10T03:40:52.035Z,0
2016-10-10T03:41:52.708Z,0
2016-10-10T03:42:53.382Z,0
2016-10-10T03:43:54.051Z,0
2016-10-10T03:44:54.723Z,0
2016-10-10T03:45:55.395Z,0
2016-10-10T03:46:56.067Z,0
2016-10-10T03:47:56.741Z,0
2016-10-10T03:48:57.423Z,0
2016-10-10T03:49:58.081Z,0
2016-10-10T03:50:58.751Z,0
2016-10-10T03:51:59.429Z,0
2016-10-10T03:53:00.095Z,0
2016-10-10T03:54:00.768Z,0
2016-10-10T03:55:01.453Z,0
2016-10-10T03:56:02.119Z,0
2016-10-10T03:57:02.791Z,0
2016-10-10T03:58:03.465Z,0
2016-10-10T03:59:04.145Z,0
2016-10-10T04:00:04.822Z,0
2016-10-10T04:01:05.492Z,0
2016-10-10T04:02:06.152Z,0
2016-10-10T04:03:06.895Z,0
2016-10-10T04:04:08.188Z,0
2016-10-10T04:05:08.880Z,0
2016-10-10T04:06:09.583Z,0
2016-10-10T04:07:10.278Z,0
2016-10-10T04:08:10.939Z,0
2016-10-10T04:09:11.646Z,0
2016-10-10T04:10:12.375Z,0
2016-10-10T04:11:13.041Z,0
2016-10-10T04:12:14.457Z,0
2016-10-10T04:13:15.144Z,0
2016-10-10T04:14:15.895Z,0
2016-10-10T04:15:16.543Z,0
2016-10-10T04:16:17.231Z,0
2016-10-10T04:17:17.937Z,0
2016-10-10T04:18:18.598Z,0
2016-10-10T04:19:19.255Z,0
2016-10-10T04:20:19.933Z,0
2016-10-10T04:21:20.650Z,0
2016-10-10T04:22:21.365Z,0
2016-10-10T04:23:22.044Z,0
2016-10-10T04:24:22.801Z,0
2016-10-10T04:25:23.529Z,0
2016-10-10T04:26:24.196Z,0
2016-10-10T04:27:24.896Z,0
2016-10-10T04:28:25.553Z,0
2016-10-10T04:29:26.208Z,0
2016-10-10T04:30:26.881Z,0
2016-10-10T04:31:27.556Z,0
2016-10-10T04:32:28.232Z,0
2016-10-10T04:33:28.908Z,0
2016-10-10T04:34:29.556Z,0
2016-10-10T04:35:30.223Z,0
2016-10-10T04:36:30.881Z,0
2016-10-10T04:37:31.538Z,0
2016-10-10T04:38:32.210Z,0
2016-10-10T04:39:32.862Z,0
2016-10-10T04:40:33.534Z,0
2016-10-10T04:41:34.208Z,0
2016-10-10T04:42:34.872Z,0
2016-10-10T04:43:35.549Z,0
2016-10-10T04:44:36.240Z,0
2016-10-10T04:45:36.895Z,0
2016-10-10T04:46:37.568Z,0
2016-10-10T04:47:38.242Z,0
2016-10-10T04:48:38.910Z,0
2016-10-10T04:49:39.588Z,0
2016-10-10T04:50:40.268Z,0
2016-10-10T04:51:40.930Z,0
2016-10-10T04:52:41.605Z,0
2016-10-10T04:53:42.280Z,0
2016-10-10T04:54:42.943Z,0
2016-10-10T04:55:43.613Z,0
2016-10-10T04:56:44.317Z,0
2016-10-10T04:57:44.989Z,0
2016-10-10T04:58:45.689Z,0
2016-10-10T04:59:46.349Z,0
2016-10-10T05:00:47.011Z,0
2016-10-10T05:01:47.678Z,0
2016-10-10T05:02:48.344Z,0
2016-10-10T05:03:49.001Z,0
2016-10-10T05:04:49.667Z,0
2016-10-10T05:05:50.315Z,0
2016-10-10T05:06:50.963Z,0
2016-10-10T05:07:51.635Z,0
2016-10-10T05:08:52.284Z,0
2016-10-10T05:09:52.954Z,0
2016-10-10T05:10:53.624Z,0
2016-10-10T05:11:54.284Z,0
2016-10-10T05:12:54.943Z,0
2016-10-10T05:13:55.629Z,0
2016-10-10T05:14:56.292Z,0
2016-10-10T05:15:56.984Z,0
2016-10-10T05:16:57.639Z,0
2016-10-10T05:17:58.313Z,0
2016-10-10T05:18:58.978Z,0
2016-10-10T05:19:59.661Z,0
2016-10-10T05:21:00.323Z,0
2016-10-10T05:22:00.995Z,0
2016-10-10T05:23:01.669Z,0
2016-10-10T05:24:02.336Z,0
2016-10-10T05:25:03.181Z,0
2016-10-10T05:26:03.833Z,0
2016-10-10T05:27:04.509Z,0
2016-10-10T05:28:05.182Z,0
2016-10-10T05:29:05.836Z,0
2016-10-10T05:30:06.784Z,0
2016-10-10T05:31:07.583Z,0
2016-10-10T05:32:08.475Z,0
2016-10-10T05:33:09.107Z,0
2016-10-10T05:34:09.785Z,0
2016-10-10T05:35:10.448Z,0
2016-10-10T05:36:11.129Z,0
2016-10-10T05:37:11.797Z,5
2016-10-10T05:38:12.496Z,5
2016-10-10T05:39:13.170Z,5
2016-10-10T05:40:13.828Z,5
2016-10-10T05:41:14.567Z,5
2016-10-10T05:42:15.224Z,5
2016-10-10T05:43:15.943Z,5
2016-10-10T05:44:16.609Z,5
2016-10-10T05:45:17.270Z,5
2016-10-10T05:46:17.934Z,5
2016-10-10T05:47:18.603Z,10
2016-10-10T05:48:19.258Z,10
2016-10-10T05:49:19.918Z,10
2016-10-10T05:50:20.586Z,10
2016-10-10T05:51:21.256Z,10
2016-10-10T05:52:21.954Z,10
2016-10-10T05:53:22.603Z,10
2016-10-10T05:54:23.254Z,15
2016-10-10T05:55:23.939Z,15
2016-10-10T05:56:24.617Z,15
2016-10-10T05:57:25.390Z,15
2016-10-10T05:58:26.068Z,15
2016-10-10T05:59:26.758Z,15
2016-10-10T06:00:27.448Z,20
2016-10-10T06:01:28.137Z,20
2016-10-10T06:02:28.808Z,20
2016-10-10T06:03:29.483Z,20
2016-10-10T06:04:30.170Z,25
2016-10-10T06:05:30.831Z,25
2016-10-10T06:06:31.501Z,25
2016-10-10T06:07:32.167Z,25
2016-10-10T06:08:32.840Z,25
2016-10-10T06:09:33.511Z,25
2016-10-10T06:10:34.199Z,30
2016-10-10T06:11:34.874Z,30
2016-10-10T06:12:35.540Z,30
2016-10-10T06:13:36.365Z,30
2016-10-10T06:14:37.108Z,30
2016-10-10T06:15:37.906Z,30
2016-10-10T06:16:38.746Z,30
2016-10-10T06:17:39.533Z,30
2016-10-10T06:18:40.519Z,30
2016-10-10T06:19:41.295Z,30
2016-10-10T06:20:42.139Z,35
2016-10-10T06:21:42.938Z,35
2016-10-10T06:22:43.679Z,35
2016-10-10T06:23:44.418Z,35
2016-10-10T06:24:45.205Z,35
2016-10-10T06:25:45.953Z,35
2016-10-10T06:26:46.710Z,35
2016-10-10T06:27:47.472Z,35
2016-10-10T06:28:48.239Z,35
2016-10-10T06:29:49.015Z,35
2016-10-10T06:30:49.804Z,40
2016-10-10T06:31:50.538Z,40
2016-10-10T06:32:51.247Z,40
2016-10-10T06:33:51.976Z,40
2016-10-10T06:34:52.762Z,35
2016-10-10T06:35:53.517Z,40
2016-10-10T06:36:54.260Z,40
2016-10-10T06:37:55.058Z,45
2016-10-10T06:38:55.824Z,45
2016-10-10T06:39:56.560Z,45
2016-10-10T06:40:57.337Z,50
2016-10-10T06:41:58.084Z,50
2016-10-10T06:42:58.933Z,50
2016-10-10T06:43:59.612Z,55
2016-10-10T06:45:00.346Z,55
2016-10-10T06:46:01.031Z,60
2016-10-10T06:47:01.820Z,65
2016-10-10T06:48:02.618Z,70
2016-10-10T06:49:03.352Z,75
2016-10-10T06:50:04.097Z,80
2016-10-10T06:51:04.786Z,80
2016-10-10T06:52:05.580Z,85
2016-10-10T06:53:06.324Z,85
2016-10-10T06:54:07.088Z,85
2016-10-10T06:55:07.762Z,85
2016-10-10T06:56:08.533Z,90
2016-10-10T06:57:09.292Z,90
2016-10-10T06:58:10.050Z,95
2016-10-10T06:59:10.794Z,95
2016-10-10T07:00:11.605Z,95
2016-10-10T07:01:12.287Z,90
2016-10-10T07:02:13.104Z,85
2016-10-10T07:03:13.854Z,85
2016-10-10T07:04:14.628Z,85
2016-10-10T07:05:15.387Z,80
2016-10-10T07:06:16.191Z,80
2016-10-10T07:07:17.028Z,80
2016-10-10T07:08:17.763Z,85
2016-10-10T07:09:18.489Z,85
2016-10-10T07:10:19.275Z,90
2016-10-10T07:11:20.035Z,95
2016-10-10T07:12:20.825Z,105
2016-10-10T07:13:21.587Z,115
2016-10-10T07:14:22.381Z,115
2016-10-10T07:15:23.173Z,115
2016-10-10T07:16:23.987Z,110
2016-10-10T07:17:24.759Z,105
2016-10-10T07:18:25.517Z,100
2016-10-10T07:19:26.286Z,95
2016-10-10T07:20:27.060Z,90
2016-10-10T07:21:27.867Z,90
2016-10-10T07:22:28.670Z,95
2016-10-10T07:23:29.403Z,90
2016-10-10T07:24:30.111Z,95
2016-10-10T07:25:30.796Z,100
2016-10-10T07:26:31.496Z,105
2016-10-10T07:27:32.223Z,115
2016-10-10T07:28:32.919Z,120
2016-10-10T07:29:33.648Z,130
2016-10-10T07:30:34.375Z,135
2016-10-10T07:31:35.064Z,150
2016-10-10T07:32:35.753Z,160
2016-10-10T07:33:36.449Z,180
2016-10-10T07:34:37.212Z,210
2016-10-10T07:35:37.935Z,230
2016-10-10T07:36:38.623Z,245
2016-10-10T07:37:39.332Z,250
2016-10-10T07:38:40.036Z,255
2016-10-10T07:39:40.738Z,250
2016-10-10T07:40:41.474Z,245
2016-10-10T07:41:42.223Z,235
2016-10-10T07:42:42.927Z,225
2016-10-10T07:43:43.641Z,225
2016-10-10T07:44:44.357Z,225
2016-10-10T07:45:45.106Z,225
2016-10-10T07:46:45.891Z,230
2016-10-10T07:47:46.580Z,235
2016-10-10T07:48:47.304Z,235
2016-10-10T07:49:48.003Z,230
2016-10-10T07:50:48.717Z,230
2016-10-10T07:51:49.432Z,230
2016-10-10T07:52:50.146Z,230
2016-10-10T07:53:50.864Z,235
2016-10-10T07:54:51.556Z,235
2016-10-10T07:55:52.305Z,230
2016-10-10T07:56:53.036Z,230
2016-10-10T07:57:53.760Z,225
2016-10-10T07:58:54.498Z,230
2016-10-10T07:59:55.261Z,235
2016-10-10T08:00:55.973Z,235
2016-10-10T08:01:56.718Z,235
2016-10-10T08:02:57.480Z,230
2016-10-10T08:03:58.309Z,230
2016-10-10T08:04:59.205Z,235
2016-10-10T08:06:00.016Z,235
2016-10-10T08:07:00.739Z,245
2016-10-10T08:08:01.439Z,260
2016-10-10T08:09:02.155Z,275
2016-10-10T08:10:02.891Z,290
2016-10-10T08:11:03.638Z,290
2016-10-10T08:12:04.405Z,295
2016-10-10T08:13:05.118Z,295
2016-10-10T08:14:05.838Z,305
2016-10-10T08:15:06.520Z,310
2016-10-10T08:16:07.248Z,320
2016-10-10T08:17:07.965Z,315
2016-10-10T08:18:08.707Z,345
2016-10-10T08:19:09.423Z,350
2016-10-10T08:20:10.118Z,340
2016-10-10T08:21:10.835Z,350
2016-10-10T08:22:11.590Z,395
2016-10-10T08:23:12.323Z,390
2016-10-10T08:24:13.060Z,365
2016-10-10T08:25:13.769Z,370
2016-10-10T08:26:14.510Z,390
2016-10-10T08:27:15.192Z,420
2016-10-10T08:28:15.917Z,480
2016-10-10T08:29:16.635Z,415
2016-10-10T08:30:17.400Z,375
2016-10-10T08:31:18.140Z,365
2016-10-10T08:32:18.921Z,340
2016-10-10T08:33:19.646Z,340
2016-10-10T08:34:20.524Z,350
2016-10-10T08:35:21.263Z,360
2016-10-10T08:36:22.012Z,380
2016-10-10T08:37:22.726Z,390
2016-10-10T08:38:23.463Z,405
2016-10-10T08:39:24.263Z,420
2016-10-10T08:40:24.992Z,435
2016-10-10T08:41:25.863Z,470
2016-10-10T08:42:26.583Z,445
2016-10-10T08:43:27.293Z,420
2016-10-10T08:44:28.017Z,395
2016-10-10T08:45:28.764Z,385
2016-10-10T08:46:29.508Z,365
2016-10-10T08:47:30.261Z,350
2016-10-10T08:48:31.000Z,340
2016-10-10T08:49:31.929Z,335
2016-10-10T08:50:32.653Z,345
2016-10-10T08:51:33.387Z,365
2016-10-10T08:52:34.449Z,380
2016-10-10T08:53:35.395Z,395
2016-10-10T08:54:36.305Z,420
2016-10-10T08:55:37.121Z,435
2016-10-10T08:56:37.853Z,440
2016-10-10T08:57:38.646Z,450
2016-10-10T08:58:39.345Z,425
2016-10-10T08:59:40.049Z,430
2016-10-10T09:00:40.837Z,420
2016-10-10T09:01:41.704Z,435
2016-10-10T09:02:42.480Z,450
2016-10-10T09:03:43.324Z,430
2016-10-10T09:04:44.094Z,405
2016-10-10T09:05:44.873Z,380
2016-10-10T09:06:45.806Z,385
2016-10-10T09:07:46.673Z,390
2016-10-10T09:08:47.469Z,400
2016-10-10T09:09:48.262Z,415
2016-10-10T09:10:49.037Z,415
2016-10-10T09:11:49.783Z,400
2016-10-10T09:12:50.519Z,385
2016-10-10T09:13:51.463Z,365
2016-10-10T09:14:52.272Z,360
2016-10-10T09:15:53.094Z,350
2016-10-10T09:16:54.027Z,330
2016-10-10T09:17:54.842Z,320
2016-10-10T09:18:55.675Z,315
2016-10-10T09:19:56.679Z,330
2016-10-10T09:20:57.693Z,365
2016-10-10T09:21:58.555Z,390
2016-10-10T09:22:59.350Z,395
2016-10-10T09:24:00.116Z,380
2016-10-10T09:25:01.002Z,360
2016-10-10T09:26:02.573Z,360
2016-10-10T09:27:03.312Z,355
2016-10-10T09:28:04.223Z,345
2016-10-10T09:29:04.989Z,330
2016-10-10T09:30:05.840Z,315
2016-10-10T09:31:06.612Z,315
2016-10-10T09:32:07.467Z,310
2016-10-10T09:33:08.223Z,315
2016-10-10T09:34:09.019Z,320
2016-10-10T09:35:09.778Z,325
2016-10-10T09:36:10.481Z,335
2016-10-10T09:37:11.281Z,340
2016-10-10T09:38:12.047Z,340
2016-10-10T09:39:12.846Z,335
2016-10-10T09:40:13.538Z,335
2016-10-10T09:41:14.268Z,345
2016-10-10T09:42:15.018Z,360
2016-10-10T09:43:15.761Z,360
2016-10-10T09:44:16.575Z,375
2016-10-10T09:45:17.352Z,395
2016-10-10T09:46:18.121Z,400
2016-10-10T09:47:18.873Z,390
2016-10-10T09:48:19.649Z,375
2016-10-10T09:49:20.398Z,370
2016-10-10T09:50:21.184Z,360
2016-10-10T09:51:22.055Z,345
2016-10-10T09:52:22.837Z,345
2016-10-10T09:53:23.772Z,365
2016-10-10T09:54:24.598Z,360
2016-10-10T09:55:25.366Z,350
2016-10-10T09:56:26.215Z,355
2016-10-10T09:57:27.216Z,375
2016-10-10T09:58:27.932Z,390
2016-10-10T09:59:28.700Z,395
2016-10-10T10:00:29.436Z,405
2016-10-10T10:01:30.245Z,405
2016-10-10T10:02:30.967Z,425
2016-10-10T10:03:31.746Z,425
2016-10-10T10:04:32.489Z,455
2016-10-10T10:05:33.275Z,445
2016-10-10T10:06:34.108Z,460
2016-10-10T10:07:34.927Z,470
2016-10-10T10:08:35.669Z,475
2016-10-10T10:09:36.411Z,460
2016-10-10T10:10:37.183Z,445
2016-10-10T10:11:38.001Z,440
2016-10-10T10:12:38.742Z,440
2016-10-10T10:13:39.552Z,425
2016-10-10T10:14:40.356Z,420
2016-10-10T10:15:41.079Z,420
2016-10-10T10:16:41.940Z,415
2016-10-10T10:17:42.627Z,415
2016-10-10T10:18:43.343Z,420
2016-10-10T10:19:44.215Z,430
2016-10-10T10:20:44.988Z,430
2016-10-10T10:21:45.782Z,415
2016-10-10T10:22:46.543Z,415
2016-10-10T10:23:47.349Z,420
2016-10-10T10:24:48.138Z,405
2016-10-10T10:25:48.964Z,415
2016-10-10T10:26:49.803Z,420
2016-10-10T10:27:50.570Z,415
2016-10-10T10:28:51.334Z,410
2016-10-10T10:29:52.133Z,375
2016-10-10T10:30:53.017Z,355
2016-10-10T10:31:53.708Z,335
2016-10-10T10:32:54.506Z,330
2016-10-10T10:33:55.262Z,310
2016-10-10T10:34:56.077Z,305
2016-10-10T10:35:56.862Z,310
2016-10-10T10:36:57.653Z,325
2016-10-10T10:37:58.357Z,340
2016-10-10T10:38:59.078Z,370
2016-10-10T10:39:59.860Z,385
2016-10-10T10:41:00.634Z,395
2016-10-10T10:42:01.413Z,385
2016-10-10T10:43:02.181Z,350
2016-10-10T10:44:02.910Z,330
2016-10-10T10:45:03.660Z,325
2016-10-10T10:46:04.403Z,315
2016-10-10T10:47:05.161Z,290
2016-10-10T10:48:05.943Z,270
2016-10-10T10:49:06.653Z,260
2016-10-10T10:50:07.420Z,245
2016-10-10T10:51:08.227Z,215
2016-10-10T10:52:09.021Z,200
2016-10-10T10:53:09.826Z,200
2016-10-10T10:54:10.568Z,210
2016-10-10T10:55:11.313Z,205
2016-10-10T10:56:12.071Z,205
2016-10-10T10:57:12.790Z,205
2016-10-10T10:58:13.497Z,200
2016-10-10T10:59:14.308Z,210
2016-10-10T11:00:15.069Z,215
2016-10-10T11:01:15.815Z,210
2016-10-10T11:02:16.583Z,215
2016-10-10T11:03:17.290Z,220
2016-10-10T11:04:18.055Z,220
2016-10-10T11:05:18.805Z,240
2016-10-10T11:06:19.542Z,250
2016-10-10T11:07:20.316Z,245
2016-10-10T11:08:21.125Z,245
2016-10-10T11:09:21.900Z,245
2016-10-10T11:10:22.678Z,245
2016-10-10T11:11:23.439Z,250
2016-10-10T11:12:24.224Z,245
2016-10-10T11:13:24.959Z,255
2016-10-10T11:14:25.725Z,285
2016-10-10T11:15:26.476Z,315
2016-10-10T11:16:27.213Z,325
2016-10-10T11:17:27.954Z,330
2016-10-10T11:18:28.725Z,315
2016-10-10T11:19:29.518Z,265
2016-10-10T11:20:30.300Z,260
2016-10-10T11:21:30.986Z,250
2016-10-10T11:22:31.748Z,275
2016-10-10T11:23:32.500Z,290
2016-10-10T11:24:33.271Z,305
2016-10-10T11:25:34.032Z,325
2016-10-10T11:26:34.781Z,355
2016-10-10T11:27:35.544Z,365
2016-10-10T11:28:36.275Z,370
2016-10-10T11:29:36.998Z,355
2016-10-10T11:30:37.715Z,325
2016-10-10T11:31:38.516Z,295
2016-10-10T11:32:39.340Z,270
2016-10-10T11:33:40.074Z,255
2016-10-10T11:34:40.842Z,240
2016-10-10T11:35:41.605Z,220
2016-10-10T11:36:42.432Z,205
2016-10-10T11:37:43.203Z,185
2016-10-10T11:38:43.969Z,175
2016-10-10T11:39:44.731Z,165
2016-10-10T11:40:45.556Z,150
2016-10-10T11:41:46.297Z,145
2016-10-10T11:42:47.075Z,135
2016-10-10T11:43:47.749Z,125
2016-10-10T11:44:48.517Z,115
2016-10-10T11:45:49.285Z,110
2016-10-10T11:46:49.976Z,105
2016-10-10T11:47:50.718Z,100
2016-10-10T11:48:51.488Z,105
2016-10-10T11:49:52.230Z,105
2016-10-10T11:50:52.945Z,105
2016-10-10T11:51:53.734Z,105
2016-10-10T11:52:54.472Z,115
2016-10-10T11:53:55.278Z,125
2016-10-10T11:54:55.972Z,140
2016-10-10T11:55:56.733Z,150
2016-10-10T11:56:57.515Z,165
2016-10-10T11:57:58.278Z,175
2016-10-10T11:58:59.020Z,205
2016-10-10T11:59:59.792Z,250
2016-10-10T12:01:00.526Z,280
2016-10-10T12:02:01.251Z,295
2016-10-10T12:03:01.996Z,305
2016-10-10T12:04:02.716Z,315
2016-10-10T12:05:03.442Z,310
2016-10-10T12:06:04.253Z,295
2016-10-10T12:07:04.985Z,290
2016-10-10T12:08:05.744Z,300
2016-10-10T12:09:06.486Z,325
2016-10-10T12:10:07.215Z,340
2016-10-10T12:11:07.985Z,330
2016-10-10T12:12:08.696Z,305
2016-10-10T12:13:09.399Z,285
2016-10-10T12:14:10.151Z,265
2016-10-10T12:15:10.889Z,235
2016-10-10T12:16:11.627Z,195
2016-10-10T12:17:12.402Z,160
2016-10-10T12:18:13.133Z,140
2016-10-10T12:19:13.933Z,140
2016-10-10T12:20:14.695Z,155
2016-10-10T12:21:15.430Z,185
2016-10-10T12:22:16.190Z,210
2016-10-10T12:23:16.943Z,230
2016-10-10T12:24:17.689Z,235
2016-10-10T12:25:18.410Z,225
2016-10-10T12:26:19.116Z,215
2016-10-10T12:27:19.895Z,205
2016-10-10T12:28:20.656Z,200
2016-10-10T12:29:21.423Z,205
2016-10-10T12:30:22.167Z,205
2016-10-10T12:31:22.932Z,210
2016-10-10T12:32:23.705Z,220
2016-10-10T12:33:24.426Z,235
2016-10-10T12:34:25.230Z,245
2016-10-10T12:35:25.972Z,255
2016-10-10T12:36:26.694Z,265
2016-10-10T12:37:27.489Z,255
2016-10-10T12:38:28.235Z,250
2016-10-10T12:39:28.982Z,250
2016-10-10T12:40:29.767Z,255
2016-10-10T12:41:30.534Z,255
2016-10-10T12:42:31.258Z,250
2016-10-10T12:43:32.001Z,245
2016-10-10T12:44:32.773Z,240
2016-10-10T12:45:33.517Z,230
2016-10-10T12:46:34.216Z,220
2016-10-10T12:47:34.958Z,205
2016-10-10T12:48:35.660Z,200
2016-10-10T12:49:36.447Z,195
2016-10-10T12:50:37.171Z,190
2016-10-10T12:51:37.926Z,190
2016-10-10T12:52:38.711Z,185
2016-10-10T12:53:39.398Z,180
2016-10-10T12:54:40.116Z,180
2016-10-10T12:55:40.909Z,175
2016-10-10T12:56:41.641Z,185
2016-10-10T12:57:42.360Z,185
2016-10-10T12:58:43.099Z,185
2016-10-10T12:59:43.820Z,180
2016-10-10T13:00:44.580Z,175
2016-10-10T13:01:45.353Z,160
2016-10-10T13:02:46.126Z,155
2016-10-10T13:03:46.905Z,150
2016-10-10T13:04:47.709Z,140
2016-10-10T13:05:48.479Z,125
2016-10-10T13:06:49.208Z,100
2016-10-10T13:07:49.963Z,85
2016-10-10T13:08:50.747Z,75
2016-10-10T13:09:51.494Z,65
2016-10-10T13:10:52.262Z,70
2016-10-10T13:11:53.122Z,75
2016-10-10T13:12:53.862Z,75
2016-10-10T13:13:54.684Z,80
2016-10-10T13:14:55.460Z,80
2016-10-10T13:15:56.231Z,75
2016-10-10T13:16:56.972Z,75
2016-10-10T13:17:57.800Z,70
2016-10-10T13:18:58.541Z,70
2016-10-10T13:19:59.445Z,70
2016-10-10T13:21:00.239Z,70
2016-10-10T13:22:01.024Z,65
2016-10-10T13:23:01.831Z,65
2016-10-10T13:24:02.585Z,60
2016-10-10T13:25:03.377Z,65
2016-10-10T13:26:04.187Z,65
2016-10-10T13:27:04.991Z,65
2016-10-10T13:28:05.808Z,65
2016-10-10T13:29:06.563Z,65
2016-10-10T13:30:07.386Z,65
2016-10-10T13:31:08.231Z,70
2016-10-10T13:32:09.025Z,75
2016-10-10T13:33:09.780Z,75
2016-10-10T13:34:10.581Z,75
2016-10-10T13:35:11.377Z,75
2016-10-10T13:36:12.140Z,75
2016-10-10T13:37:12.929Z,80
2016-10-10T13:38:13.646Z,85
2016-10-10T13:39:14.368Z,85
2016-10-10T13:40:15.118Z,85
2016-10-10T13:41:15.900Z,90
2016-10-10T13:42:16.653Z,105
2016-10-10T13:43:17.459Z,125
2016-10-10T13:44:18.350Z,145
2016-10-10T13:45:19.086Z,160
2016-10-10T13:46:19.770Z,160
2016-10-10T13:47:20.628Z,150
2016-10-10T13:48:21.452Z,165
2016-10-10T13:49:22.159Z,165
2016-10-10T13:50:23.052Z,165
2016-10-10T13:51:23.789Z,175
2016-10-10T13:52:24.579Z,185
2016-10-10T13:53:25.368Z,185
2016-10-10T13:54:26.231Z,185
2016-10-10T13:55:27.012Z,190
2016-10-10T13:56:27.745Z,190
2016-10-10T13:57:28.554Z,185
2016-10-10T13:58:29.375Z,180
2016-10-10T13:59:30.200Z,170
2016-10-10T14:00:31.035Z,165
2016-10-10T14:01:31.937Z,160
2016-10-10T14:02:32.844Z,135
2016-10-10T14:03:33.635Z,125
2016-10-10T14:04:34.434Z,125
2016-10-10T14:05:35.446Z,135
2016-10-10T14:06:36.267Z,140
2016-10-10T14:07:37.041Z,135
2016-10-10T14:08:37.894Z,125
2016-10-10T14:09:38.708Z,105
2016-10-10T14:10:39.627Z,100
2016-10-10T14:11:40.425Z,105
2016-10-10T14:12:41.183Z,105
2016-10-10T14:13:41.960Z,95
2016-10-10T14:14:42.757Z,90
2016-10-10T14:15:43.558Z,85
2016-10-10T14:16:44.476Z,75
2016-10-10T14:17:45.338Z,65
2016-10-10T14:18:46.234Z,60
2016-10-10T14:19:47.119Z,55
2016-10-10T14:20:48.026Z,50
2016-10-10T14:21:48.903Z,45
2016-10-10T14:22:49.730Z,40
2016-10-10T14:23:50.527Z,35
2016-10-10T14:24:51.406Z,30